Time,TemperatureF,DewpointF,PressureIn,WindDirection,WindDirectionDegrees,WindSpeedMPH,WindSpeedGustMPH,Humidity,HourlyPrecipIn,Conditions,Clouds,dailyrainin,SoftwareType,DateUTC
2013-06-28 00:08:00,73.8,68.0,29.81,WNW,294,2.0,9.0,82,0.00,,,0.00,weatherlink.com 1.10,2013-06-28 05:08:00,
2013-06-28 00:23:00,73.4,68.0,29.80,WNW,302,3.0,7.0,83,0.00,,,0.00,weatherlink.com 1.10,2013-06-28 05:23:00,
2013-06-28 00:38:00,72.9,68.0,29.80,WNW,302,4.0,4.0,84,0.00,,,0.00,weatherlink.com 1.10,2013-06-28 05:38:00,
2013-06-28 00:53:00,72.4,68.0,29.80,WNW,302,1.0,5.0,85,0.00,,,0.00,weatherlink.com 1.10,2013-06-28 05:53:00,
2013-06-28 01:08:00,72.3,68.0,29.80,WNW,290,3.0,6.0,86,0.00,,,0.00,weatherlink.com 1.10,2013-06-28 06:08:00,
2013-06-28 01:23:00,72.2,68.0,29.79,WNW,285,3.0,7.0,85,0.00,,,0.00,weatherlink.com 1.10,2013-06-28 06:23:00,
2013-06-28 01:38:00,72.1,67.0,29.78,WNW,288,2.0,7.0,85,0.00,,,0.00,weatherlink.com 1.10,2013-06-28 06:38:00,
2013-06-28 01:53:00,71.8,67.0,29.79,WNW,294,4.0,6.0,85,0.00,,,0.00,weatherlink.com 1.10,2013-06-28 06:53:00,
2013-06-28 02:08:00,71.4,67.0,29.78,WNW,287,2.0,5.0,86,0.00,,,0.00,weatherlink.com 1.10,2013-06-28 07:08:00,
2013-06-28 02:23:00,70.7,67.0,29.78,West,271,0.0,5.0,88,0.00,,,0.00,weatherlink.com 1.10,2013-06-28 07:23:00,
2013-06-28 02:38:00,70.4,67.0,29.78,West,274,4.0,8.0,89,0.00,,,0.00,weatherlink.com 1.10,2013-06-28 07:38:00,
2013-06-28 02:53:00,70.1,67.0,29.77,West,274,2.0,6.0,89,0.00,,,0.00,weatherlink.com 1.10,2013-06-28 07:53:00,
2013-06-28 03:08:00,70.0,67.0,29.77,West,275,3.0,8.0,89,0.00,,,0.00,weatherlink.com 1.10,2013-06-28 08:08:00,
2013-06-28 03:23:00,69.7,66.0,29.77,WNW,293,2.0,7.0,89,0.00,,,0.00,weatherlink.com 1.10,2013-06-28 08:23:00,
2013-06-28 03:38:00,69.5,66.0,29.77,WNW,303,2.0,5.0,89,0.00,,,0.00,weatherlink.com 1.10,2013-06-28 08:38:00,
2013-06-28 03:53:00,69.4,66.0,29.76,WNW,285,2.0,7.0,89,0.00,,,0.00,weatherlink.com 1.10,2013-06-28 08:53:00,
2013-06-28 04:08:00,69.2,66.0,29.76,NW,306,3.0,6.0,89,0.00,,,0.00,weatherlink.com 1.10,2013-06-28 09:08:00,
2013-06-28 04:23:00,68.8,66.0,29.75,NW,304,3.0,6.0,89,0.00,,,0.00,weatherlink.com 1.10,2013-06-28 09:23:00,
2013-06-28 04:39:00,68.4,65.0,29.75,NW,319,1.0,6.0,89,0.00,,,0.00,weatherlink.com 1.10,2013-06-28 09:39:00,
2013-06-28 04:54:00,68.1,65.0,29.75,WNW,301,1.0,6.0,89,0.00,,,0.00,weatherlink.com 1.10,2013-06-28 09:54:00,
2013-06-28 05:09:00,68.2,64.0,29.76,WNW,287,1.0,5.0,87,0.00,,,0.00,weatherlink.com 1.10,2013-06-28 10:09:00,
2013-06-28 05:24:00,68.1,64.0,29.76,WNW,286,0.0,4.0,86,0.00,,,0.00,weatherlink.com 1.10,2013-06-28 10:24:00,
2013-06-28 05:39:00,67.5,64.0,29.77,WNW,285,0.0,3.0,87,0.00,,,0.00,weatherlink.com 1.10,2013-06-28 10:39:00,
2013-06-28 06:09:00,66.8,64.0,29.78,SW,227,1.0,6.0,90,0.00,,,0.00,weatherlink.com 1.10,2013-06-28 11:09:00,
2013-06-28 06:24:00,67.3,64.0,29.78,WSW,254,4.0,5.0,89,0.00,,,0.00,weatherlink.com 1.10,2013-06-28 11:24:00,
2013-06-28 06:39:00,67.6,64.0,29.78,WSW,255,2.0,6.0,88,0.00,,,0.00,weatherlink.com 1.10,2013-06-28 11:39:00,
2013-06-28 06:54:00,68.5,65.0,29.78,West,275,3.0,8.0,87,0.00,,,0.00,weatherlink.com 1.10,2013-06-28 11:54:00,
2013-06-28 07:09:00,69.6,65.0,29.77,WNW,287,4.0,6.0,85,0.00,,,0.00,weatherlink.com 1.10,2013-06-28 12:09:00,
2013-06-28 07:24:00,70.7,65.0,29.77,West,277,4.0,8.0,82,0.00,,,0.00,weatherlink.com 1.10,2013-06-28 12:24:00,
2013-06-28 07:39:00,71.5,65.0,29.77,West,271,3.0,8.0,80,0.00,,,0.00,weatherlink.com 1.10,2013-06-28 12:39:00,
2013-06-28 07:54:00,72.8,65.0,29.77,West,267,5.0,7.0,77,0.00,,,0.00,weatherlink.com 1.10,2013-06-28 12:54:00,
2013-06-28 08:09:00,73.6,66.0,29.77,West,273,6.0,8.0,77,0.00,,,0.00,weatherlink.com 1.10,2013-06-28 13:09:00,
2013-06-28 08:24:00,75.1,66.0,29.77,SW,227,4.0,9.0,72,0.00,,,0.00,weatherlink.com 1.10,2013-06-28 13:24:00,
2013-06-28 08:39:00,75.0,65.0,29.77,WSW,254,5.0,9.0,71,0.00,,,0.00,weatherlink.com 1.10,2013-06-28 13:39:00,
2013-06-28 08:54:00,76.0,66.0,29.77,NW,317,4.0,8.0,70,0.00,,,0.00,weatherlink.com 1.10,2013-06-28 13:54:00,
2013-06-28 09:09:00,76.9,64.0,29.77,NW,304,5.0,11.0,65,0.00,,,0.00,weatherlink.com 1.10,2013-06-28 14:09:00,
2013-06-28 09:24:00,77.5,64.0,29.77,North,355,3.0,12.0,63,0.00,,,0.00,weatherlink.com 1.10,2013-06-28 14:24:00,
2013-06-28 09:39:00,77.8,64.0,29.77,WNW,290,5.0,14.0,62,0.00,,,0.00,weatherlink.com 1.10,2013-06-28 14:39:00,
2013-06-28 09:54:00,78.7,65.0,29.76,NNW,331,3.0,12.0,62,0.00,,,0.00,weatherlink.com 1.10,2013-06-28 14:54:00,
2013-06-28 10:09:00,80.1,64.0,29.76,NW,313,4.0,10.0,58,0.00,,,0.00,weatherlink.com 1.10,2013-06-28 15:09:00,
2013-06-28 10:24:00,80.3,64.0,29.75,NW,321,8.0,11.0,57,0.00,,,0.00,weatherlink.com 1.10,2013-06-28 15:24:00,
2013-06-28 10:40:00,80.5,64.0,29.76,NW,311,7.0,13.0,57,0.00,,,0.00,weatherlink.com 1.10,2013-06-28 15:40:00,
2013-06-28 10:55:00,81.3,64.0,29.75,NW,308,11.0,13.0,55,0.00,,,0.00,weatherlink.com 1.10,2013-06-28 15:55:00,
2013-06-28 11:10:00,81.3,63.0,29.75,NNW,344,6.0,15.0,54,0.00,,,0.00,weatherlink.com 1.10,2013-06-28 16:10:00,
2013-06-28 11:25:00,82.0,62.0,29.75,NNW,342,10.0,18.0,51,0.00,,,0.00,weatherlink.com 1.10,2013-06-28 16:25:00,
2013-06-28 11:40:00,82.4,61.0,29.75,WNW,284,7.0,19.0,48,0.00,,,0.00,weatherlink.com 1.10,2013-06-28 16:40:00,
2013-06-28 11:55:00,82.2,61.0,29.75,NW,320,5.0,17.0,48,0.00,,,0.00,weatherlink.com 1.10,2013-06-28 16:55:00,
2013-06-28 12:10:00,82.9,59.0,29.75,NW,323,9.0,18.0,45,0.00,,,0.00,weatherlink.com 1.10,2013-06-28 17:10:00,
2013-06-28 12:25:00,83.1,60.0,29.75,NW,306,13.0,16.0,45,0.00,,,0.00,weatherlink.com 1.10,2013-06-28 17:25:00,
2013-06-28 12:40:00,82.6,59.0,29.75,North,355,5.0,19.0,44,0.00,,,0.00,weatherlink.com 1.10,2013-06-28 17:40:00,
2013-06-28 12:55:00,83.4,59.0,29.75,NW,321,8.0,14.0,44,0.00,,,0.00,weatherlink.com 1.10,2013-06-28 17:55:00,
2013-06-28 13:10:00,83.3,59.0,29.74,NNW,341,4.0,17.0,44,0.00,,,0.00,weatherlink.com 1.10,2013-06-28 18:10:00,
2013-06-28 13:25:00,83.4,58.0,29.74,WNW,298,7.0,14.0,42,0.00,,,0.00,weatherlink.com 1.10,2013-06-28 18:25:00,
2013-06-28 13:40:00,83.7,58.0,29.73,WNW,298,8.0,15.0,41,0.00,,,0.00,weatherlink.com 1.10,2013-06-28 18:40:00,
2013-06-28 13:55:00,83.8,59.0,29.73,NNW,335,6.0,16.0,43,0.00,,,0.00,weatherlink.com 1.10,2013-06-28 18:55:00,
2013-06-28 14:10:00,83.9,58.0,29.73,NNW,339,13.0,17.0,42,0.00,,,0.00,weatherlink.com 1.10,2013-06-28 19:10:00,
2013-06-28 14:25:00,83.9,56.0,29.73,North,355,10.0,17.0,39,0.00,,,0.00,weatherlink.com 1.10,2013-06-28 19:25:00,
2013-06-28 14:40:00,83.3,57.0,29.72,NW,314,11.0,17.0,41,0.00,,,0.00,weatherlink.com 1.10,2013-06-28 19:40:00,
2013-06-28 14:55:00,83.9,57.0,29.71,NW,315,8.0,21.0,40,0.00,,,0.00,weatherlink.com 1.10,2013-06-28 19:55:00,
2013-06-28 15:10:00,84.2,57.0,29.71,West,271,11.0,21.0,39,0.00,,,0.00,weatherlink.com 1.10,2013-06-28 20:10:00,
2013-06-28 15:25:00,84.0,56.0,29.71,WNW,303,7.0,14.0,39,0.00,,,0.00,weatherlink.com 1.10,2013-06-28 20:25:00,
2013-06-28 15:40:00,84.3,57.0,29.71,NW,313,14.0,19.0,40,0.00,,,0.00,weatherlink.com 1.10,2013-06-28 20:40:00,
2013-06-28 15:55:00,83.9,57.0,29.70,NW,317,14.0,23.0,40,0.00,,,0.00,weatherlink.com 1.10,2013-06-28 20:55:00,
2013-06-28 16:10:00,84.2,57.0,29.70,WNW,293,6.0,26.0,40,0.00,,,0.00,weatherlink.com 1.10,2013-06-28 21:10:00,
2013-06-28 16:25:00,84.2,57.0,29.70,NW,317,12.0,18.0,39,0.00,,,0.00,weatherlink.com 1.10,2013-06-28 21:25:00,
2013-06-28 16:40:00,83.8,57.0,29.70,WNW,295,6.0,18.0,40,0.00,,,0.00,weatherlink.com 1.10,2013-06-28 21:40:00,
2013-06-28 16:55:00,83.7,57.0,29.69,NW,313,12.0,18.0,40,0.00,,,0.00,weatherlink.com 1.10,2013-06-28 21:55:00,
2013-06-28 17:10:00,83.9,56.0,29.69,WNW,300,21.0,21.0,39,0.00,,,0.00,weatherlink.com 1.10,2013-06-28 22:10:00,
2013-06-28 17:25:00,83.6,56.0,29.68,NW,310,7.0,21.0,39,0.00,,,0.00,weatherlink.com 1.10,2013-06-28 22:25:00,
2013-06-28 17:40:00,83.8,56.0,29.68,WNW,290,13.0,23.0,38,0.00,,,0.00,weatherlink.com 1.10,2013-06-28 22:40:00,
2013-06-28 17:55:00,83.3,57.0,29.67,NW,321,9.0,16.0,40,0.00,,,0.00,weatherlink.com 1.10,2013-06-28 22:55:00,
2013-06-28 18:10:00,83.5,55.0,29.67,WNW,292,12.0,23.0,37,0.00,,,0.00,weatherlink.com 1.10,2013-06-28 23:10:00,
2013-06-28 18:25:00,83.2,54.0,29.67,NNW,327,14.0,23.0,36,0.00,,,0.00,weatherlink.com 1.10,2013-06-28 23:25:00,
2013-06-28 18:40:00,82.6,54.0,29.66,WNW,288,6.0,15.0,38,0.00,,,0.00,weatherlink.com 1.10,2013-06-28 23:40:00,
2013-06-28 18:55:00,82.2,55.0,29.67,West,265,15.0,20.0,39,0.00,,,0.00,weatherlink.com 1.10,2013-06-28 23:55:00,
2013-06-28 19:10:00,81.1,55.0,29.67,WNW,297,3.0,28.0,41,0.00,,,0.00,weatherlink.com 1.10,2013-06-29 00:10:00,
2013-06-28 19:25:00,80.1,57.0,29.67,NNW,333,7.0,16.0,45,0.00,,,0.00,weatherlink.com 1.10,2013-06-29 00:25:00,
2013-06-28 19:40:00,80.3,58.0,29.68,NW,313,8.0,19.0,46,0.00,,,0.00,weatherlink.com 1.10,2013-06-29 00:40:00,
2013-06-28 19:55:00,79.4,58.0,29.68,NW,309,6.0,16.0,48,0.00,,,0.00,weatherlink.com 1.10,2013-06-29 00:55:00,
2013-06-28 20:10:00,78.1,58.0,29.68,NNW,333,4.0,12.0,51,0.00,,,0.00,weatherlink.com 1.10,2013-06-29 01:10:00,
2013-06-28 20:25:00,77.0,59.0,29.68,NW,323,2.0,10.0,54,0.00,,,0.00,weatherlink.com 1.10,2013-06-29 01:25:00,
2013-06-28 20:40:00,75.9,59.0,29.68,NNW,340,3.0,8.0,56,0.00,,,0.00,weatherlink.com 1.10,2013-06-29 01:40:00,
2013-06-28 20:55:00,75.1,60.0,29.68,North,355,3.0,9.0,59,0.00,,,0.00,weatherlink.com 1.10,2013-06-29 01:55:00,
2013-06-28 21:10:00,74.2,60.0,29.68,NW,323,4.0,5.0,61,0.00,,,0.00,weatherlink.com 1.10,2013-06-29 02:10:00,
2013-06-28 21:25:00,73.5,60.0,29.68,NNW,333,1.0,4.0,63,0.00,,,0.00,weatherlink.com 1.10,2013-06-29 02:25:00,
2013-06-28 21:40:00,73.1,60.0,29.68,NW,321,0.0,4.0,64,0.00,,,0.00,weatherlink.com 1.10,2013-06-29 02:40:00,
2013-06-28 21:55:00,72.7,61.0,29.68,NNW,342,1.0,4.0,66,0.00,,,0.00,weatherlink.com 1.10,2013-06-29 02:55:00,
2013-06-28 22:10:00,72.3,61.0,29.69,NNW,345,3.0,4.0,67,0.00,,,0.00,weatherlink.com 1.10,2013-06-29 03:10:00,
2013-06-28 22:25:00,72.1,61.0,29.69,NNW,348,2.0,4.0,68,0.00,,,0.00,weatherlink.com 1.10,2013-06-29 03:25:00,
2013-06-28 22:40:00,71.7,61.0,29.69,NNW,348,0.0,2.0,69,0.00,,,0.00,weatherlink.com 1.10,2013-06-29 03:40:00,
2013-06-28 22:55:00,71.4,61.0,29.69,NNW,334,2.0,5.0,70,0.00,,,0.00,weatherlink.com 1.10,2013-06-29 03:55:00,
2013-06-28 23:10:00,71.7,61.0,29.68,NNW,330,5.0,6.0,69,0.00,,,0.00,weatherlink.com 1.10,2013-06-29 04:10:00,
2013-06-28 23:25:00,71.0,61.0,29.68,NW,306,3.0,4.0,71,0.00,,,0.00,weatherlink.com 1.10,2013-06-29 04:25:00,
2013-06-28 23:40:00,70.4,61.0,29.68,NNW,344,3.0,7.0,72,0.00,,,0.00,weatherlink.com 1.10,2013-06-29 04:40:00,
2013-06-28 23:55:00,70.4,61.0,29.67,NNW,327,1.0,7.0,71,0.00,,,0.00,weatherlink.com 1.10,2013-06-29 04:55:00,